createdAt,value
2018-07-03T00:00:52.339Z,23.44
2018-07-03T00:01:52.329Z,23.50
2018-07-03T00:02:52.316Z,23.44
2018-07-03T00:03:52.307Z,23.49
2018-07-03T00:04:52.316Z,23.45
2018-07-03T00:05:52.284Z,23.44
2018-07-03T00:06:52.272Z,23.38
2018-07-03T00:07:52.261Z,23.34
2018-07-03T00:08:52.253Z,23.29
2018-07-03T00:09:52.265Z,23.38
2018-07-03T00:10:52.227Z,23.34
2018-07-03T00:11:52.216Z,23.26
2018-07-03T00:12:52.208Z,23.35
2018-07-03T00:13:52.194Z,23.32
2018-07-03T00:14:52.206Z,23.32
2018-07-03T00:15:52.174Z,23.21
2018-07-03T00:16:52.160Z,23.32
2018-07-03T00:17:52.149Z,23.23
2018-07-03T00:18:52.138Z,23.23
2018-07-03T00:19:52.150Z,23.26
2018-07-03T00:20:52.115Z,23.18
2018-07-03T00:21:52.106Z,23.21
2018-07-03T00:22:52.093Z,23.19
2018-07-03T00:23:52.084Z,23.15
2018-07-03T00:24:52.098Z,23.07
2018-07-03T00:25:52.062Z,23.09
2018-07-03T00:26:52.048Z,23.16
2018-07-03T00:27:52.039Z,23.06
2018-07-03T00:28:52.027Z,23.04
2018-07-03T00:29:52.039Z,23.00
2018-07-03T00:30:52.013Z,23.01
2018-07-03T00:31:51.996Z,23.06
2018-07-03T00:32:51.982Z,23.11
2018-07-03T00:33:51.972Z,23.06
2018-07-03T00:34:51.983Z,23.12
2018-07-03T00:35:51.948Z,23.00
2018-07-03T00:36:51.941Z,23.07
2018-07-03T00:37:51.927Z,22.99
2018-07-03T00:38:51.915Z,22.99
2018-07-03T00:39:51.936Z,23.06
2018-07-03T00:40:51.893Z,23.00
2018-07-03T00:41:51.881Z,23.00
2018-07-03T00:42:51.871Z,23.06
2018-07-03T00:43:51.864Z,22.99
2018-07-03T00:44:51.875Z,23.09
2018-07-03T00:45:51.840Z,22.97
2018-07-03T00:46:51.827Z,22.94
2018-07-03T00:47:51.815Z,22.97
2018-07-03T00:48:51.804Z,22.97
2018-07-03T00:49:51.816Z,22.94
2018-07-03T00:50:51.782Z,22.94
2018-07-03T00:51:51.770Z,23.00
2018-07-03T00:52:51.760Z,22.93
2018-07-03T00:53:51.748Z,22.96
2018-07-03T00:54:51.762Z,22.93
2018-07-03T00:55:51.727Z,23.01
2018-07-03T00:56:51.714Z,22.93
2018-07-03T00:57:51.703Z,22.91
2018-07-03T00:58:51.693Z,22.93
2018-07-03T00:59:51.705Z,22.89
2018-07-03T01:00:51.671Z,22.89
2018-07-03T01:01:51.659Z,22.94
2018-07-03T01:02:51.648Z,22.88
2018-07-03T01:03:51.638Z,22.97
2018-07-03T01:04:51.650Z,22.84
2018-07-03T01:05:51.614Z,22.89
2018-07-03T01:06:51.603Z,22.84
2018-07-03T01:07:51.597Z,22.82
2018-07-03T01:08:51.582Z,22.76
2018-07-03T01:09:51.593Z,22.79
2018-07-03T01:10:51.564Z,22.79
2018-07-03T01:11:51.547Z,22.74
2018-07-03T01:12:51.537Z,22.74
2018-07-03T01:13:51.525Z,22.76
2018-07-03T01:14:51.536Z,22.78
2018-07-03T01:15:51.503Z,22.74
2018-07-03T01:16:51.492Z,22.70
2018-07-03T01:17:51.519Z,22.74
2018-07-03T01:18:51.471Z,22.74
2018-07-03T01:19:51.481Z,22.72
2018-07-03T01:20:51.447Z,22.78
2018-07-03T01:21:51.438Z,22.69
2018-07-03T01:22:51.425Z,22.70
2018-07-03T01:23:51.413Z,22.72
2018-07-03T01:24:51.426Z,22.74
2018-07-03T01:25:51.392Z,22.69
2018-07-03T01:26:51.380Z,22.69
2018-07-03T01:27:51.370Z,22.61
2018-07-03T01:28:51.358Z,22.72
2018-07-03T01:29:51.348Z,22.69
2018-07-03T01:30:51.362Z,22.63
2018-07-03T01:31:51.325Z,22.59
2018-07-03T01:32:51.313Z,22.61
2018-07-03T01:33:51.302Z,22.64
2018-07-03T01:34:51.313Z,22.61
2018-07-03T01:35:51.279Z,22.52
2018-07-03T01:36:51.268Z,22.54
2018-07-03T01:37:51.259Z,22.56
2018-07-03T01:38:51.248Z,22.54
2018-07-03T01:39:51.238Z,22.51
2018-07-03T01:40:51.248Z,22.45
2018-07-03T01:41:51.219Z,22.56
2018-07-03T01:42:51.202Z,22.56
2018-07-03T01:43:51.190Z,22.49
2018-07-03T01:44:51.181Z,22.46
2018-07-03T01:45:51.193Z,22.44
2018-07-03T01:46:51.158Z,22.44
2018-07-03T01:47:51.147Z,22.42
2018-07-03T01:48:51.137Z,22.38
2018-07-03T01:49:51.132Z,22.46
2018-07-03T01:50:51.174Z,22.45
2018-07-03T01:51:51.103Z,22.42
2018-07-03T01:52:51.103Z,22.41
2018-07-03T01:53:51.082Z,22.45
2018-07-03T01:54:51.070Z,22.45
2018-07-03T01:55:51.090Z,22.39
2018-07-03T01:56:51.046Z,22.35
2018-07-03T01:57:51.039Z,22.38
2018-07-03T01:58:51.025Z,22.36
2018-07-03T01:59:51.014Z,22.38
2018-07-03T02:00:51.026Z,22.33
2018-07-03T02:01:50.991Z,22.39
2018-07-03T02:02:50.980Z,22.33
2018-07-03T02:03:50.971Z,22.33
2018-07-03T02:04:50.958Z,22.29
2018-07-03T02:05:50.970Z,22.29
2018-07-03T02:06:50.936Z,22.31
2018-07-03T02:07:50.925Z,22.27
2018-07-03T02:08:50.913Z,22.30
2018-07-03T02:09:50.902Z,22.29
2018-07-03T02:10:50.914Z,22.35
2018-07-03T02:11:50.882Z,22.30
2018-07-03T02:12:50.869Z,22.33
2018-07-03T02:13:50.859Z,22.33
2018-07-03T02:14:50.846Z,22.30
2018-07-03T02:15:50.861Z,22.31
2018-07-03T02:16:50.826Z,22.33
2018-07-03T02:17:50.814Z,22.31
2018-07-03T02:18:50.804Z,22.41
2018-07-03T02:19:50.793Z,22.30
2018-07-03T02:20:50.806Z,22.30
2018-07-03T02:21:50.772Z,22.35
2018-07-03T02:22:50.760Z,22.33
2018-07-03T02:23:50.749Z,22.30
2018-07-03T02:24:50.740Z,22.29
2018-07-03T02:25:50.751Z,22.29
2018-07-03T02:26:50.718Z,22.24
2018-07-03T02:27:50.705Z,22.19
2018-07-03T02:28:50.695Z,22.15
2018-07-03T02:29:50.683Z,22.36
2018-07-03T02:30:50.697Z,22.26
2018-07-03T02:31:50.663Z,22.26
2018-07-03T02:32:50.673Z,22.23
2018-07-03T02:33:50.641Z,22.23
2018-07-03T02:34:50.628Z,22.24
2018-07-03T02:35:50.619Z,22.21
2018-07-03T02:36:50.605Z,22.24
2018-07-03T02:37:50.620Z,22.27
2018-07-03T02:38:50.585Z,22.15
2018-07-03T02:39:50.573Z,22.21
2018-07-03T02:40:50.561Z,22.19
2018-07-03T02:41:50.551Z,22.17
2018-07-03T02:42:50.580Z,22.20
2018-07-03T02:43:50.534Z,22.23
2018-07-03T02:44:50.518Z,22.24
2018-07-03T02:45:50.508Z,22.20
2018-07-03T02:46:50.495Z,22.24
2018-07-03T02:47:50.508Z,22.17
2018-07-03T02:48:50.473Z,22.17
2018-07-03T02:49:50.463Z,22.17
2018-07-03T02:50:50.452Z,22.21
2018-07-03T02:51:50.446Z,22.20
2018-07-03T02:52:50.453Z,22.24
2018-07-03T02:53:50.419Z,22.19
2018-07-03T02:54:50.411Z,22.24
2018-07-03T02:55:50.396Z,22.15
2018-07-03T02:56:50.387Z,22.23
2018-07-03T02:57:50.398Z,22.12
2018-07-03T02:58:50.364Z,22.11
2018-07-03T02:59:50.361Z,22.11
2018-07-03T03:00:50.343Z,22.09
2018-07-03T03:01:50.333Z,22.09
2018-07-03T03:02:50.342Z,22.09
2018-07-03T03:03:50.308Z,22.06
2018-07-03T03:04:50.300Z,22.01
2018-07-03T03:05:50.289Z,22.04
2018-07-03T03:06:50.278Z,22.01
2018-07-03T03:07:50.267Z,21.98
2018-07-03T03:08:50.277Z,21.94
2018-07-03T03:09:50.245Z,22.06
2018-07-03T03:10:50.232Z,22.01
2018-07-03T03:11:50.221Z,22.01
2018-07-03T03:12:50.212Z,21.99
2018-07-03T03:13:50.222Z,21.99
2018-07-03T03:14:50.191Z,22.01
2018-07-03T03:15:50.179Z,21.96
2018-07-03T03:16:50.167Z,21.93
2018-07-03T03:17:50.158Z,21.90
2018-07-03T03:18:50.169Z,21.93
2018-07-03T03:19:50.133Z,21.85
2018-07-03T03:20:50.122Z,21.83
2018-07-03T03:21:50.112Z,21.82
2018-07-03T03:22:50.106Z,21.90
2018-07-03T03:23:50.114Z,21.86
2018-07-03T03:24:50.078Z,21.85
2018-07-03T03:25:50.067Z,21.83
2018-07-03T03:26:50.058Z,21.90
2018-07-03T03:27:50.049Z,21.89
2018-07-03T03:28:50.062Z,21.81
2018-07-03T03:29:50.023Z,21.86
2018-07-03T03:30:50.016Z,21.85
2018-07-03T03:31:50.005Z,21.86
2018-07-03T03:32:49.991Z,21.83
2018-07-03T03:33:50.003Z,21.81
2018-07-03T03:34:49.969Z,21.83
2018-07-03T03:35:49.957Z,21.79
2018-07-03T03:36:49.949Z,21.77
2018-07-03T03:37:49.935Z,21.73
2018-07-03T03:38:49.947Z,21.71
2018-07-03T03:39:49.912Z,21.81
2018-07-03T03:40:49.901Z,21.81
2018-07-03T03:41:49.895Z,21.74
2018-07-03T03:42:49.880Z,21.81
2018-07-03T03:43:49.894Z,21.71
2018-07-03T03:44:49.858Z,21.79
2018-07-03T03:45:49.848Z,21.75
2018-07-03T03:46:49.835Z,21.74
2018-07-03T03:47:49.824Z,21.70
2018-07-03T03:48:49.836Z,21.71
2018-07-03T03:49:49.804Z,21.75
2018-07-03T03:50:49.791Z,21.74
2018-07-03T03:51:49.780Z,21.70
2018-07-03T03:52:49.770Z,21.73
2018-07-03T03:53:49.885Z,21.66
2018-07-03T03:54:49.749Z,21.75
2018-07-03T03:55:49.737Z,21.64
2018-07-03T03:56:49.726Z,21.66
2018-07-03T03:57:49.715Z,21.66
2018-07-03T03:58:49.726Z,21.68
2018-07-03T03:59:49.693Z,21.63
2018-07-03T04:00:49.723Z,21.59
2018-07-03T04:01:49.687Z,21.63
2018-07-03T04:02:49.660Z,21.73
2018-07-03T04:03:49.674Z,21.67
2018-07-03T04:04:49.639Z,21.73
2018-07-03T04:05:49.628Z,21.67
2018-07-03T04:06:49.618Z,21.71
2018-07-03T04:07:49.605Z,21.71
2018-07-03T04:08:49.617Z,21.71
2018-07-03T04:09:49.583Z,21.67
2018-07-03T04:10:49.575Z,21.67
2018-07-03T04:11:49.563Z,21.66
2018-07-03T04:12:49.551Z,21.70
2018-07-03T04:13:49.562Z,21.73
2018-07-03T04:14:49.528Z,21.58
2018-07-03T04:15:49.516Z,21.68
2018-07-03T04:16:49.507Z,21.68
2018-07-03T04:17:49.495Z,21.77
2018-07-03T04:18:49.507Z,21.77
2018-07-03T04:19:49.473Z,21.71
2018-07-03T04:20:49.462Z,21.73
2018-07-03T04:21:49.453Z,21.70
2018-07-03T04:22:49.440Z,21.68
2018-07-03T04:23:49.452Z,21.77
2018-07-03T04:24:49.417Z,21.75
2018-07-03T04:25:49.410Z,21.73
2018-07-03T04:26:49.396Z,21.73
2018-07-03T04:27:49.384Z,21.71
2018-07-03T04:28:49.397Z,21.73
2018-07-03T04:29:49.365Z,21.75
2018-07-03T04:30:49.353Z,21.79
2018-07-03T04:31:49.341Z,21.77
2018-07-03T04:32:49.330Z,21.79
2018-07-03T04:33:49.342Z,21.79
2018-07-03T04:34:49.309Z,21.79
2018-07-03T04:35:49.296Z,21.79
2018-07-03T04:36:49.286Z,21.85
2018-07-03T04:37:49.276Z,21.85
2018-07-03T04:38:49.287Z,21.81
2018-07-03T04:39:49.254Z,21.83
2018-07-03T04:40:49.241Z,21.90
2018-07-03T04:41:49.232Z,21.89
2018-07-03T04:42:49.220Z,21.91
2018-07-03T04:43:49.230Z,21.86
2018-07-03T04:44:49.196Z,21.83
2018-07-03T04:45:49.186Z,21.86
2018-07-03T04:46:49.178Z,21.86
2018-07-03T04:47:49.162Z,21.83
2018-07-03T04:48:49.176Z,21.90
2018-07-03T04:49:49.146Z,21.90
2018-07-03T04:50:49.130Z,21.89
2018-07-03T04:51:49.123Z,21.82
2018-07-03T04:52:49.108Z,21.86
2018-07-03T04:53:49.128Z,21.89
2018-07-03T04:54:49.087Z,21.89
2018-07-03T04:55:49.075Z,21.98
2018-07-03T04:56:49.066Z,22.01
2018-07-03T04:57:49.054Z,21.96
2018-07-03T04:58:49.075Z,22.02
2018-07-03T04:59:49.030Z,21.91
2018-07-03T05:00:49.020Z,21.98
2018-07-03T05:01:49.010Z,21.94
2018-07-03T05:02:49.006Z,22.02
2018-07-03T05:03:48.989Z,22.01
2018-07-03T05:04:48.999Z,22.04
2018-07-03T05:05:48.965Z,21.98
2018-07-03T05:06:48.956Z,21.98
2018-07-03T05:07:48.944Z,22.04
2018-07-03T05:08:48.934Z,22.01
2018-07-03T05:09:48.944Z,21.98
2018-07-03T05:10:48.910Z,22.02
2018-07-03T05:11:48.899Z,21.96
2018-07-03T05:12:48.889Z,21.94
2018-07-03T05:13:48.882Z,22.05
2018-07-03T05:14:48.889Z,22.04
2018-07-03T05:15:48.857Z,22.01
2018-07-03T05:16:48.844Z,22.06
2018-07-03T05:17:48.832Z,22.04
2018-07-03T05:18:48.822Z,22.04
2018-07-03T05:19:48.832Z,22.08
2018-07-03T05:20:48.798Z,22.09
2018-07-03T05:21:48.788Z,22.09
2018-07-03T05:22:48.777Z,22.14
2018-07-03T05:23:48.765Z,22.09
2018-07-03T05:24:48.781Z,22.08
2018-07-03T05:25:48.744Z,22.08
2018-07-03T05:26:48.733Z,22.09
2018-07-03T05:27:48.722Z,22.08
2018-07-03T05:28:48.710Z,22.11
2018-07-03T05:29:48.723Z,22.06
2018-07-03T05:30:48.690Z,22.17
2018-07-03T05:31:48.679Z,22.17
2018-07-03T05:32:48.667Z,22.23
2018-07-03T05:33:48.657Z,22.20
2018-07-03T05:34:48.667Z,22.24
2018-07-03T05:35:48.635Z,22.19
2018-07-03T05:36:48.624Z,22.14
2018-07-03T05:37:48.762Z,22.20
2018-07-03T05:38:48.601Z,22.19
2018-07-03T05:39:48.617Z,22.21
2018-07-03T05:40:48.579Z,22.15
2018-07-03T05:41:48.567Z,22.21
2018-07-03T05:42:48.561Z,22.14
2018-07-03T05:43:48.546Z,22.23
2018-07-03T05:44:48.559Z,22.20
2018-07-03T05:45:48.525Z,22.17
2018-07-03T05:46:48.514Z,22.24
2018-07-03T05:47:48.502Z,22.20
2018-07-03T05:48:48.492Z,22.23
2018-07-03T05:49:48.503Z,22.26
2018-07-03T05:50:48.471Z,22.19
2018-07-03T05:51:48.462Z,22.20
2018-07-03T05:52:48.446Z,22.15
2018-07-03T05:53:48.440Z,22.15
2018-07-03T05:54:48.449Z,22.26
2018-07-03T05:55:48.414Z,22.30
2018-07-03T05:56:48.403Z,22.29
2018-07-03T05:57:48.392Z,22.30
2018-07-03T05:58:48.380Z,22.27
2018-07-03T05:59:48.394Z,22.30
2018-07-03T06:00:48.361Z,22.35
2018-07-03T06:01:48.348Z,22.38
2018-07-03T06:02:48.337Z,22.35
2018-07-03T06:03:48.364Z,22.33
2018-07-03T06:04:48.339Z,22.35
2018-07-03T06:05:48.306Z,22.44
2018-07-03T06:06:48.293Z,22.41
2018-07-03T06:07:48.281Z,22.36
2018-07-03T06:08:48.271Z,22.38
2018-07-03T06:09:48.284Z,22.42
2018-07-03T06:10:48.248Z,22.38
2018-07-03T06:11:48.238Z,22.45
2018-07-03T06:12:48.226Z,22.44
2018-07-03T06:13:48.221Z,22.64
2018-07-03T06:14:48.261Z,22.69
2018-07-03T06:15:48.193Z,22.75
2018-07-03T06:16:48.182Z,22.99
2018-07-03T06:17:48.171Z,23.00
2018-07-03T06:18:48.160Z,23.15
2018-07-03T06:19:48.171Z,23.16
2018-07-03T06:20:48.139Z,23.25
2018-07-03T06:21:48.126Z,23.45
2018-07-03T06:22:48.178Z,23.45
2018-07-03T06:23:48.105Z,23.54
2018-07-03T06:24:48.116Z,23.54
2018-07-03T06:25:48.082Z,23.62
2018-07-03T06:26:48.071Z,23.64
2018-07-03T06:27:48.062Z,23.75
2018-07-03T06:28:48.074Z,23.74
2018-07-03T06:29:48.059Z,23.82
2018-07-03T06:30:48.025Z,23.92
2018-07-03T06:31:48.015Z,23.90
2018-07-03T06:32:48.003Z,23.97
2018-07-03T06:33:47.991Z,23.94
2018-07-03T06:34:48.008Z,24.00
2018-07-03T06:35:47.971Z,23.92
2018-07-03T06:36:47.970Z,23.97
2018-07-03T06:37:47.947Z,24.00
2018-07-03T06:38:47.942Z,23.99
2018-07-03T06:39:47.948Z,24.04
2018-07-03T06:40:48.015Z,24.08
2018-07-03T06:41:48.001Z,24.09
2018-07-03T06:42:47.893Z,24.11
2018-07-03T06:43:47.880Z,24.12
2018-07-03T06:44:47.950Z,24.14
2018-07-03T06:45:47.859Z,24.15
2018-07-03T06:46:47.848Z,24.21
2018-07-03T06:47:47.837Z,24.15
2018-07-03T06:48:47.828Z,24.24
2018-07-03T06:49:47.817Z,24.26
2018-07-03T06:50:47.826Z,24.29
2018-07-03T06:51:47.854Z,24.27
2018-07-03T06:52:47.830Z,24.24
2018-07-03T06:53:47.772Z,24.29
2018-07-03T06:54:47.763Z,24.29
2018-07-03T06:55:47.771Z,24.29
2018-07-03T06:56:47.743Z,24.27
2018-07-03T06:57:47.784Z,24.29
2018-07-03T06:58:47.716Z,24.31
2018-07-03T06:59:47.730Z,24.36
2018-07-03T07:00:47.719Z,24.48
2018-07-03T07:01:47.683Z,24.36
2018-07-03T07:02:47.673Z,24.44
2018-07-03T07:03:47.661Z,24.41
2018-07-03T07:04:47.652Z,24.39
2018-07-03T07:05:47.661Z,24.44
2018-07-03T07:06:47.628Z,24.42
2018-07-03T07:07:47.617Z,24.44
2018-07-03T07:08:47.787Z,24.45
2018-07-03T07:09:47.602Z,24.44
2018-07-03T07:10:47.609Z,24.49
2018-07-03T07:11:47.591Z,24.49
2018-07-03T07:12:47.562Z,24.60
2018-07-03T07:13:47.550Z,24.53
2018-07-03T07:14:47.540Z,24.49
2018-07-03T07:15:47.551Z,24.55
2018-07-03T07:16:47.518Z,24.49
2018-07-03T07:17:47.507Z,24.56
2018-07-03T07:18:47.496Z,24.55
2018-07-03T07:19:47.486Z,24.56
2018-07-03T07:20:47.498Z,24.55
2018-07-03T07:21:47.463Z,24.56
2018-07-03T07:22:47.452Z,24.55
2018-07-03T07:23:47.441Z,24.63
2018-07-03T07:24:47.433Z,24.67
2018-07-03T07:25:47.442Z,24.60
2018-07-03T07:26:47.409Z,24.61
2018-07-03T07:27:47.398Z,24.63
2018-07-03T07:28:47.386Z,24.61
2018-07-03T07:29:47.377Z,24.61
2018-07-03T07:30:47.390Z,24.59
2018-07-03T07:31:47.354Z,24.59
2018-07-03T07:32:47.342Z,24.66
2018-07-03T07:33:47.332Z,24.63
2018-07-03T07:34:47.320Z,24.63
2018-07-03T07:35:47.340Z,24.59
2018-07-03T07:36:47.298Z,24.61
2018-07-03T07:37:47.290Z,24.59
2018-07-03T07:38:47.276Z,24.56
2018-07-03T07:39:47.266Z,24.53
2018-07-03T07:40:47.279Z,24.60
2018-07-03T07:41:47.244Z,24.53
2018-07-03T07:42:47.319Z,24.55
2018-07-03T07:43:47.221Z,24.56
2018-07-03T07:44:47.211Z,24.61
2018-07-03T07:45:47.222Z,24.63
2018-07-03T07:46:47.190Z,24.63
2018-07-03T07:47:47.179Z,24.66
2018-07-03T07:48:47.167Z,24.64
2018-07-03T07:49:47.157Z,24.67
2018-07-03T07:50:47.169Z,24.61
2018-07-03T07:51:47.134Z,24.68
2018-07-03T07:52:47.123Z,24.70
2018-07-03T07:53:47.116Z,24.74
2018-07-03T07:54:47.108Z,24.71
2018-07-03T07:55:47.113Z,24.80
2018-07-03T07:56:47.080Z,24.68
2018-07-03T07:57:47.104Z,24.48
2018-07-03T07:58:47.058Z,24.24
2018-07-03T07:59:47.047Z,24.14
2018-07-03T08:00:47.060Z,24.02
2018-07-03T08:01:47.024Z,23.92
2018-07-03T08:02:47.013Z,23.77
2018-07-03T08:03:47.004Z,23.67
2018-07-03T08:04:46.994Z,23.69
2018-07-03T08:05:47.006Z,23.50
2018-07-03T08:06:47.049Z,23.41
2018-07-03T08:07:46.961Z,23.45
2018-07-03T08:08:46.948Z,23.37
2018-07-03T08:09:46.935Z,23.38
2018-07-03T08:10:46.950Z,23.23
2018-07-03T08:11:46.915Z,23.29
2018-07-03T08:12:46.904Z,23.19
2018-07-03T08:13:46.895Z,23.18
2018-07-03T08:14:46.888Z,23.34
2018-07-03T08:15:46.894Z,23.26
2018-07-03T08:16:46.861Z,23.32
2018-07-03T08:17:46.851Z,23.47
2018-07-03T08:18:46.843Z,23.49
2018-07-03T08:19:46.830Z,23.50
2018-07-03T08:20:46.839Z,23.45
2018-07-03T08:21:46.804Z,23.47
2018-07-03T08:22:46.793Z,23.44
2018-07-03T08:23:46.781Z,23.41
2018-07-03T08:24:46.775Z,23.54
2018-07-03T08:25:46.782Z,23.53
2018-07-03T08:26:46.750Z,23.69
2018-07-03T08:27:46.739Z,23.59
2018-07-03T08:28:46.727Z,23.68
2018-07-03T08:29:46.719Z,23.71
2018-07-03T08:30:46.706Z,23.71
2018-07-03T08:31:46.722Z,23.77
2018-07-03T08:32:46.682Z,23.69
2018-07-03T08:33:46.671Z,23.72
2018-07-03T08:34:46.662Z,23.78
2018-07-03T08:35:46.651Z,23.68
2018-07-03T08:36:46.670Z,23.79
2018-07-03T08:37:46.688Z,23.84
2018-07-03T08:38:46.617Z,23.86
2018-07-03T08:39:46.604Z,23.86
2018-07-03T08:40:46.596Z,23.93
2018-07-03T08:41:46.610Z,23.99
2018-07-03T08:42:46.577Z,24.08
2018-07-03T08:43:46.561Z,24.04
2018-07-03T08:44:46.550Z,24.04
2018-07-03T08:45:46.538Z,24.05
2018-07-03T08:46:46.551Z,24.12
2018-07-03T08:47:46.517Z,24.15
2018-07-03T08:48:46.507Z,24.08
2018-07-03T08:49:46.495Z,24.21
2018-07-03T08:50:46.486Z,24.27
2018-07-03T08:51:46.586Z,24.30
2018-07-03T08:52:46.464Z,24.26
2018-07-03T08:53:46.451Z,24.31
2018-07-03T08:54:46.447Z,24.29
2018-07-03T08:55:46.430Z,24.33
2018-07-03T08:56:46.442Z,24.29
2018-07-03T08:57:46.409Z,24.31
2018-07-03T08:58:46.399Z,24.31
2018-07-03T08:59:46.386Z,24.36
2018-07-03T09:00:46.386Z,24.41
2018-07-03T09:01:46.386Z,24.45
2018-07-03T09:02:46.352Z,24.46
2018-07-03T09:03:46.347Z,24.45
2018-07-03T09:04:46.332Z,24.52
2018-07-03T09:05:46.320Z,24.59
2018-07-03T09:06:46.343Z,24.56
2018-07-03T09:07:46.298Z,24.56
2018-07-03T09:08:46.289Z,24.63
2018-07-03T09:09:46.276Z,24.60
2018-07-03T09:10:46.266Z,24.68
2018-07-03T09:11:46.276Z,24.79
2018-07-03T09:12:46.243Z,24.74
2018-07-03T09:13:46.232Z,24.79
2018-07-03T09:14:46.222Z,24.80
2018-07-03T09:15:46.210Z,24.79
2018-07-03T09:16:46.223Z,24.84
2018-07-03T09:17:46.188Z,24.89
2018-07-03T09:18:46.176Z,24.90
2018-07-03T09:19:46.166Z,24.94
2018-07-03T09:20:46.156Z,24.89
2018-07-03T09:21:46.171Z,24.94
2018-07-03T09:22:46.135Z,24.94
2018-07-03T09:23:46.122Z,25.04
2018-07-03T09:24:46.110Z,25.08
2018-07-03T09:25:46.101Z,24.99
2018-07-03T09:26:46.111Z,25.09
2018-07-03T09:27:46.078Z,25.08
2018-07-03T09:28:46.067Z,25.09
2018-07-03T09:29:46.056Z,25.09
2018-07-03T09:30:46.100Z,25.14
2018-07-03T09:31:46.057Z,25.11
2018-07-03T09:32:46.023Z,25.14
2018-07-03T09:33:46.060Z,25.16
2018-07-03T09:34:46.001Z,25.22
2018-07-03T09:35:45.989Z,25.23
2018-07-03T09:36:46.003Z,25.26
2018-07-03T09:37:45.969Z,25.29
2018-07-03T09:38:45.957Z,25.30
2018-07-03T09:39:45.949Z,25.34
2018-07-03T09:40:45.935Z,25.38
2018-07-03T09:41:45.948Z,25.34
2018-07-03T09:42:45.913Z,25.38
2018-07-03T09:43:45.908Z,25.39
2018-07-03T09:44:45.891Z,25.44
2018-07-03T09:45:45.881Z,25.45
2018-07-03T09:46:45.895Z,25.46
2018-07-03T09:47:45.858Z,25.48
2018-07-03T09:48:45.876Z,25.53
2018-07-03T09:49:45.836Z,25.48
2018-07-03T09:50:45.827Z,25.56
2018-07-03T09:51:45.844Z,25.57
2018-07-03T09:52:45.803Z,25.60
2018-07-03T09:53:45.792Z,25.61
2018-07-03T09:54:45.873Z,25.54
2018-07-03T09:55:45.772Z,25.66
2018-07-03T09:56:45.782Z,25.69
2018-07-03T09:57:45.757Z,25.57
2018-07-03T09:58:45.736Z,25.67
2018-07-03T09:59:45.727Z,25.74
2018-07-03T10:00:45.716Z,25.67
2018-07-03T10:01:45.728Z,25.71
2018-07-03T10:02:45.694Z,25.74
2018-07-03T10:03:45.683Z,25.71
2018-07-03T10:04:45.672Z,25.75
2018-07-03T10:05:45.660Z,25.78
2018-07-03T10:06:45.674Z,25.64
2018-07-03T10:07:45.641Z,25.79
2018-07-03T10:08:45.629Z,25.79
2018-07-03T10:09:45.619Z,25.75
2018-07-03T10:10:45.606Z,25.75
2018-07-03T10:11:45.603Z,25.74
2018-07-03T10:12:45.606Z,25.75
2018-07-03T10:13:45.573Z,25.83
2018-07-03T10:14:45.562Z,25.81
2018-07-03T10:15:45.551Z,25.81
2018-07-03T10:16:45.541Z,25.85
2018-07-03T10:17:45.573Z,25.83
2018-07-03T10:18:45.555Z,25.81
2018-07-03T10:19:45.509Z,25.79
2018-07-03T10:20:45.497Z,25.85
2018-07-03T10:21:45.487Z,25.86
2018-07-03T10:22:45.499Z,25.91
2018-07-03T10:23:45.463Z,25.86
2018-07-03T10:24:45.454Z,25.89
2018-07-03T10:25:45.443Z,25.93
2018-07-03T10:26:45.470Z,25.89
2018-07-03T10:27:45.427Z,25.91
2018-07-03T10:28:45.408Z,25.90
2018-07-03T10:29:45.408Z,25.93
2018-07-03T10:30:45.387Z,25.91
2018-07-03T10:31:45.377Z,25.91
2018-07-03T10:32:45.387Z,25.96
2018-07-03T10:33:45.354Z,25.98
2018-07-03T10:34:45.343Z,25.93
2018-07-03T10:35:45.332Z,25.93
2018-07-03T10:36:45.320Z,26.03
2018-07-03T10:37:45.338Z,26.06
2018-07-03T10:38:45.299Z,26.00
2018-07-03T10:39:45.288Z,26.00
2018-07-03T10:40:45.277Z,26.00
2018-07-03T10:41:45.267Z,26.09
2018-07-03T10:42:45.278Z,25.97
2018-07-03T10:43:45.245Z,25.97
2018-07-03T10:44:45.233Z,26.03
2018-07-03T10:45:45.222Z,26.00
2018-07-03T10:46:45.211Z,26.03
2018-07-03T10:47:45.228Z,26.04
2018-07-03T10:48:45.210Z,26.00
2018-07-03T10:49:45.177Z,26.00
2018-07-03T10:50:45.166Z,26.06
2018-07-03T10:51:45.156Z,26.11
2018-07-03T10:52:45.167Z,26.11
2018-07-03T10:53:45.134Z,26.06
2018-07-03T10:54:45.123Z,26.11
2018-07-03T10:55:45.114Z,26.08
2018-07-03T10:56:45.106Z,26.11
2018-07-03T10:57:45.124Z,26.08
2018-07-03T10:58:45.078Z,26.11
2018-07-03T10:59:45.068Z,26.21
2018-07-03T11:00:45.064Z,26.23
2018-07-03T11:01:45.050Z,26.35
2018-07-03T11:02:45.058Z,26.29
2018-07-03T11:03:45.023Z,26.35
2018-07-03T11:04:45.025Z,26.29
2018-07-03T11:05:45.077Z,26.41
2018-07-03T11:06:44.990Z,26.47
2018-07-03T11:07:47.384Z,26.46
2018-07-03T11:08:45.024Z,26.53
2018-07-03T11:09:45.135Z,26.57
2018-07-03T11:10:44.947Z,26.54
2018-07-03T11:11:44.937Z,26.51
2018-07-03T11:12:44.948Z,26.56
2018-07-03T11:13:44.969Z,26.56
2018-07-03T11:14:44.902Z,26.49
2018-07-03T11:15:44.895Z,26.53
2018-07-03T11:16:44.891Z,26.54
2018-07-03T11:17:44.993Z,26.60
2018-07-03T11:18:44.860Z,26.56
2018-07-03T11:19:45.410Z,26.51
2018-07-03T11:20:44.836Z,26.50
2018-07-03T11:21:44.825Z,26.46
2018-07-03T11:22:44.840Z,26.53
2018-07-03T11:23:44.803Z,26.51
2018-07-03T11:24:44.794Z,26.53
2018-07-03T11:25:44.782Z,26.57
2018-07-03T11:26:44.772Z,26.69
2018-07-03T11:27:44.781Z,26.72
2018-07-03T11:28:44.749Z,26.66
2018-07-03T11:29:44.737Z,26.76
2018-07-03T11:30:44.726Z,26.72
2018-07-03T11:31:44.715Z,26.72
2018-07-03T11:32:44.727Z,26.81
2018-07-03T11:33:44.751Z,26.75
2018-07-03T11:34:44.682Z,26.73
2018-07-03T11:35:44.672Z,26.72
2018-07-03T11:36:44.661Z,26.73
2018-07-03T11:37:44.729Z,26.75
2018-07-03T11:38:44.638Z,26.90
2018-07-03T11:39:44.627Z,26.91
2018-07-03T11:40:44.618Z,26.98
2018-07-03T11:41:44.606Z,27.02
2018-07-03T11:42:44.619Z,27.03
2018-07-03T11:43:44.583Z,26.97
2018-07-03T11:44:44.623Z,27.02
2018-07-03T11:45:44.562Z,26.94
2018-07-03T11:46:44.551Z,27.01
2018-07-03T11:47:44.541Z,26.98
2018-07-03T11:48:44.551Z,26.98
2018-07-03T11:49:44.517Z,27.15
2018-07-03T11:50:44.507Z,27.20
2018-07-03T11:51:44.495Z,27.21
2018-07-03T11:52:44.487Z,27.21
2018-07-03T11:53:44.497Z,27.20
2018-07-03T11:54:44.462Z,27.23
2018-07-03T11:55:44.452Z,27.27
2018-07-03T11:56:44.445Z,27.25
2018-07-03T11:57:44.460Z,27.31
2018-07-03T11:58:44.418Z,27.43
2018-07-03T11:59:44.406Z,27.48
2018-07-03T12:00:44.398Z,27.52
2018-07-03T12:01:44.451Z,27.55
2018-07-03T12:02:44.375Z,27.53
2018-07-03T12:03:44.385Z,27.62
2018-07-03T12:04:44.352Z,27.72
2018-07-03T12:05:44.340Z,27.81
2018-07-03T12:06:44.332Z,27.90
2018-07-03T12:07:44.321Z,28.02
2018-07-03T12:08:44.330Z,28.13
2018-07-03T12:09:44.298Z,28.15
2018-07-03T12:10:44.285Z,28.05
2018-07-03T12:11:44.275Z,28.05
2018-07-03T12:12:44.263Z,28.14
2018-07-03T12:13:44.277Z,28.30
2018-07-03T12:14:44.242Z,28.45
2018-07-03T12:15:44.232Z,28.67
2018-07-03T12:16:44.222Z,29.14
2018-07-03T12:17:44.212Z,29.79
2018-07-03T12:18:44.224Z,30.82
2018-07-03T12:19:44.295Z,31.97
2018-07-03T12:20:44.180Z,33.34
2018-07-03T12:21:44.169Z,34.86
2018-07-03T12:22:44.159Z,36.13
2018-07-03T12:23:44.167Z,37.11
2018-07-03T12:24:44.135Z,37.78
2018-07-03T12:25:44.123Z,38.45
2018-07-03T12:26:44.115Z,39.06
2018-07-03T12:27:44.101Z,39.35
2018-07-03T12:28:44.115Z,39.59
2018-07-03T12:29:44.080Z,39.70
2018-07-03T12:30:44.071Z,39.76
2018-07-03T12:31:44.059Z,39.57
2018-07-03T12:32:44.048Z,39.38
2018-07-03T12:33:44.060Z,38.89
2018-07-03T12:34:44.028Z,38.49
2018-07-03T12:35:44.017Z,38.38
2018-07-03T12:36:44.048Z,38.44
2018-07-03T12:37:43.994Z,38.41
2018-07-03T12:38:44.007Z,38.21
2018-07-03T12:39:43.973Z,37.97
2018-07-03T12:40:43.962Z,37.82
2018-07-03T12:41:43.950Z,37.45
2018-07-03T12:42:43.941Z,36.94
2018-07-03T12:43:43.954Z,36.65
2018-07-03T12:44:43.920Z,36.19
2018-07-03T12:45:43.908Z,35.54
2018-07-03T12:46:43.898Z,35.20
2018-07-03T12:47:43.929Z,34.88
2018-07-03T12:48:43.900Z,34.49
2018-07-03T12:49:43.908Z,34.08
2018-07-03T12:50:43.856Z,33.72
2018-07-03T12:51:43.848Z,33.66
2018-07-03T12:52:43.833Z,33.60